Ponca City Regional Airport Ponca City US
ICAO: KPNC
IATA: PNC
Category: Medium
Scheduled Services: No

Elevation: 1008 ft
TransAlt. 18000 ft.

Airport Communications:
ASOS:134.075
KANSAS CITY CNTR:127.8
MC ALESTER RDO:122.25
CTAF/UNICOM:123

KPNC Zoom In..

If you have problems with the map follow the link
https://www.worldairports.se/pages/airport.php?
ICAO=KPNC

Runways:

(A) RW 17 length 7201 ft width 150 ft
ILS 111.90 / hdg 175

(B) RW 35 length 7201 ft width 150 ft
---- / hdg 355

Location; KPNC
Day. 08 / Time. 13.53 Zulu
* Altimeter: 29.84
* Temperature: 09° c. 48.2°f.
* Wind from: 180° Speed 09 kn with Gusts up to 16 kn.
Dewpoint: 06° c.
Visibility: 10 Statute Miles.
Clouds: Clear (automated report).

KPNC 081353Z AUTO 18009G16KT 10SM CLR 09/06 A2984 RMK AO2 SLP102 T00890056


Wind From 180°
Speed 09 kn.

 
 
jpsmedia worldairports.se 2019   terms of use